createdAt,value
2018-02-17T00:00:37.825Z,9.80
2018-02-17T00:05:07.200Z,8.70
2018-02-17T00:09:36.095Z,9.07
2018-02-17T00:11:37.656Z,8.03
2018-02-17T00:13:38.600Z,8.60
2018-02-17T00:15:39.645Z,8.73
2018-02-17T00:17:40.658Z,8.23
2018-02-17T00:20:08.704Z,9.77
2018-02-17T00:22:09.673Z,8.93
2018-02-17T00:24:10.719Z,7.63
2018-02-17T00:26:12.467Z,8.80
2018-02-17T00:28:13.432Z,10.43
2018-02-17T00:30:14.460Z,10.03
2018-02-17T00:32:37.416Z,9.17
2018-02-17T00:34:38.483Z,10.10
2018-02-17T00:39:07.568Z,9.40
2018-02-17T00:41:08.514Z,10.00
2018-02-17T00:43:09.540Z,9.90
2018-02-17T00:47:37.971Z,8.57
2018-02-17T00:49:39.659Z,9.27
2018-02-17T00:52:07.261Z,8.57
2018-02-17T00:54:08.300Z,8.53
2018-02-17T00:56:09.328Z,9.07
2018-02-17T00:58:10.296Z,9.63
2018-02-17T01:00:11.252Z,10.10
2018-02-17T01:02:12.263Z,8.70
2018-02-17T01:04:13.249Z,9.40
2018-02-17T01:06:14.185Z,8.73
2018-02-17T01:08:15.175Z,9.30
2018-02-17T01:10:37.572Z,10.00
2018-02-17T01:12:38.548Z,9.73
2018-02-17T01:14:39.534Z,11.10
2018-02-17T01:16:41.255Z,10.10
2018-02-17T01:21:18.319Z,10.70
2018-02-17T01:23:19.364Z,10.30
2018-02-17T01:25:20.310Z,10.52
2018-02-17T01:27:22.086Z,10.30
2018-02-17T01:29:23.154Z,10.63
2018-02-17T01:31:24.128Z,11.48
2018-02-17T01:33:25.824Z,10.70
2018-02-17T01:35:27.552Z,10.50
2018-02-17T01:37:28.498Z,9.95
2018-02-17T01:39:49.976Z,11.27
2018-02-17T01:41:51.108Z,12.43
2018-02-17T01:46:20.022Z,12.90
2018-02-17T01:48:21.772Z,11.30
2018-02-17T01:55:20.129Z,10.93
2018-02-17T01:57:21.112Z,12.27
2018-02-17T01:59:31.844Z,12.60
2018-02-17T02:01:32.831Z,12.27
2018-02-17T02:03:49.825Z,13.07
2018-02-17T02:05:50.766Z,11.90
2018-02-17T02:10:19.001Z,10.57
2018-02-17T02:12:19.975Z,11.87
2018-02-17T02:14:20.948Z,13.55
2018-02-17T02:18:49.844Z,11.65
2018-02-17T02:23:19.275Z,13.35
2018-02-17T02:25:20.275Z,11.83
2018-02-17T02:27:21.284Z,13.53
2018-02-17T02:29:22.252Z,11.77
2018-02-17T02:31:23.240Z,11.90
2018-02-17T02:33:24.971Z,13.70
2018-02-17T02:35:50.032Z,13.55
2018-02-17T02:40:20.096Z,13.60
2018-02-17T02:42:21.068Z,14.30
2018-02-17T02:44:22.076Z,13.37
2018-02-17T02:46:23.077Z,12.43
2018-02-17T02:48:24.033Z,12.00
2018-02-17T02:50:24.988Z,12.23
2018-02-17T02:52:25.933Z,12.00
2018-02-17T02:54:50.768Z,12.00
2018-02-17T02:56:51.812Z,13.93
2018-02-17T02:58:53.522Z,12.15
2018-02-17T03:00:54.535Z,11.70
2018-02-17T03:02:56.251Z,15.27
2018-02-17T03:04:57.192Z,14.18
2018-02-17T03:07:19.683Z,12.97
2018-02-17T03:09:20.623Z,13.52
2018-02-17T03:11:21.587Z,13.17
2018-02-17T03:13:22.527Z,13.47
2018-02-17T03:15:50.140Z,11.70
2018-02-17T03:22:59.809Z,12.07
2018-02-17T03:27:28.840Z,12.05
2018-02-17T03:29:29.862Z,12.60
2018-02-17T03:31:30.942Z,13.10
2018-02-17T03:33:31.931Z,12.70
2018-02-17T03:35:32.896Z,12.80
2018-02-17T03:37:33.922Z,11.40
2018-02-17T03:39:34.887Z,11.48
2018-02-17T03:42:00.419Z,11.83
2018-02-17T03:48:56.928Z,11.15
2018-02-17T03:50:57.888Z,11.27
2018-02-17T03:52:59.675Z,13.00
2018-02-17T03:55:00.648Z,12.25
2018-02-17T03:57:01.600Z,14.20
2018-02-17T04:01:30.635Z,12.52
2018-02-17T04:03:31.606Z,13.35
2018-02-17T04:05:33.304Z,13.07
2018-02-17T04:07:44.964Z,10.48
2018-02-17T04:09:46.100Z,11.85
2018-02-17T04:11:47.045Z,12.03
2018-02-17T04:13:48.011Z,15.50
2018-02-17T04:15:49.701Z,12.57
2018-02-17T04:17:50.707Z,13.27
2018-02-17T04:22:24.103Z,11.15
2018-02-17T04:24:25.063Z,13.70
2018-02-17T04:28:54.280Z,14.55
2018-02-17T04:30:55.242Z,11.43
2018-02-17T04:37:51.794Z,12.05
2018-02-17T04:42:07.378Z,12.35
2018-02-17T04:44:23.823Z,12.98
2018-02-17T04:49:27.581Z,13.25
2018-02-17T04:51:34.555Z,17.35
2018-02-17T04:56:29.948Z,15.05
2018-02-17T05:01:12.355Z,13.45
2018-02-17T05:05:48.247Z,14.35
2018-02-17T05:08:05.019Z,13.35
2018-02-17T05:10:05.972Z,13.30
2018-02-17T05:12:07.010Z,13.70
2018-02-17T05:14:09.777Z,15.00
2018-02-17T05:16:20.727Z,13.80
2018-02-17T05:18:27.676Z,13.50
2018-02-17T05:20:31.261Z,12.80
2018-02-17T05:22:32.187Z,13.00
2018-02-17T05:24:37.952Z,13.57
2018-02-17T05:26:59.852Z,12.93
2018-02-17T05:29:01.667Z,12.90
2018-02-17T05:31:04.454Z,14.43
2018-02-17T05:33:10.428Z,13.62
2018-02-17T05:35:25.875Z,13.80
2018-02-17T05:37:26.828Z,14.50
2018-02-17T05:39:29.684Z,15.43
2018-02-17T05:41:55.044Z,14.50
2018-02-17T05:43:56.006Z,14.52
2018-02-17T05:45:57.870Z,14.60
2018-02-17T05:50:27.449Z,14.20
2018-02-17T05:52:28.407Z,13.35
2018-02-17T05:54:54.094Z,11.97
2018-02-17T05:56:55.796Z,12.95
2018-02-17T05:58:56.779Z,11.80
2018-02-17T06:01:23.773Z,11.33
2018-02-17T06:05:52.407Z,17.03
2018-02-17T06:07:53.467Z,14.20
2018-02-17T06:12:23.935Z,15.63
2018-02-17T06:14:24.984Z,15.75
2018-02-17T06:16:25.927Z,14.68
2018-02-17T06:21:03.627Z,14.30
2018-02-17T06:23:04.585Z,14.55
2018-02-17T06:25:05.546Z,16.20
2018-02-17T06:29:34.305Z,15.43
2018-02-17T06:31:35.272Z,16.77
2018-02-17T06:33:36.295Z,20.20
2018-02-17T06:35:37.235Z,17.52
2018-02-17T06:37:38.208Z,16.17
2018-02-17T06:39:39.227Z,15.40
2018-02-17T06:41:40.172Z,14.23
2018-02-17T06:43:41.157Z,14.57
2018-02-17T06:45:42.887Z,15.87
2018-02-17T06:47:54.467Z,21.00
2018-02-17T06:49:55.471Z,16.00
2018-02-17T06:54:24.511Z,20.12
2018-02-17T07:01:22.917Z,15.63
2018-02-17T07:03:23.952Z,12.98
2018-02-17T07:05:24.956Z,14.38
2018-02-17T07:07:25.964Z,17.17
2018-02-17T07:09:35.299Z,16.85
2018-02-17T07:11:53.723Z,15.07
2018-02-17T07:13:54.681Z,15.30
2018-02-17T07:15:55.637Z,15.07
2018-02-17T07:17:56.571Z,16.90
2018-02-17T07:20:07.479Z,14.50
2018-02-17T07:22:08.443Z,18.98
2018-02-17T07:26:37.283Z,16.05
2018-02-17T07:28:38.275Z,17.23
2018-02-17T07:30:54.071Z,16.30
2018-02-17T07:32:55.035Z,14.25
2018-02-17T07:34:55.970Z,14.70
2018-02-17T07:36:56.878Z,14.67
2018-02-17T07:38:57.849Z,14.03
2018-02-17T07:40:58.856Z,14.10
2018-02-17T07:42:59.772Z,14.80
2018-02-17T07:45:00.704Z,16.07
2018-02-17T07:47:23.554Z,17.27
2018-02-17T07:49:24.511Z,14.77
2018-02-17T07:53:52.091Z,14.18
2018-02-17T07:58:20.598Z,16.58
2018-02-17T08:00:21.547Z,15.67
2018-02-17T08:02:22.474Z,19.48
2018-02-17T08:04:23.407Z,18.67
2018-02-17T08:06:24.338Z,19.07
2018-02-17T08:08:25.273Z,19.37
2018-02-17T08:10:26.954Z,17.97
2018-02-17T08:12:27.895Z,15.93
2018-02-17T08:14:28.834Z,17.10
2018-02-17T08:16:30.495Z,19.43
2018-02-17T08:18:32.184Z,18.95
2018-02-17T08:20:33.139Z,24.00
2018-02-17T08:22:34.171Z,21.97
2018-02-17T08:24:35.175Z,21.63
2018-02-17T08:26:36.047Z,20.90
2018-02-17T08:28:38.060Z,24.20
2018-02-17T08:30:39.031Z,22.23
2018-02-17T08:32:39.954Z,22.73
2018-02-17T08:34:40.884Z,23.02
2018-02-17T08:36:41.803Z,22.27
2018-02-17T08:39:04.552Z,21.63
2018-02-17T08:41:06.257Z,20.85
2018-02-17T08:43:24.428Z,21.30
2018-02-17T08:45:25.418Z,21.90
2018-02-17T08:47:27.090Z,25.43
2018-02-17T08:52:23.988Z,23.70
2018-02-17T08:56:53.930Z,35.43
2018-02-17T08:58:55.611Z,33.07
2018-02-17T09:00:56.551Z,32.70
2018-02-17T09:02:57.481Z,32.27
2018-02-17T09:05:02.445Z,30.97
2018-02-17T09:07:04.448Z,27.20
2018-02-17T09:09:05.366Z,24.53
2018-02-17T09:11:06.307Z,27.07
2018-02-17T09:13:09.654Z,25.80
2018-02-17T09:15:10.680Z,31.75
2018-02-17T09:17:13.543Z,28.57
2018-02-17T09:19:14.527Z,28.40
2018-02-17T09:21:15.447Z,25.93
2018-02-17T09:23:16.354Z,26.80
2018-02-17T09:25:17.331Z,26.97
2018-02-17T09:27:20.507Z,26.40
2018-02-17T09:29:21.495Z,27.23
2018-02-17T09:31:22.424Z,27.20
2018-02-17T09:33:23.351Z,26.20
2018-02-17T09:35:24.283Z,31.92
2018-02-17T09:37:25.934Z,29.20
2018-02-17T09:39:27.619Z,26.57
2018-02-17T09:44:08.542Z,27.00
2018-02-17T09:46:09.491Z,26.20
2018-02-17T09:48:10.452Z,26.55
2018-02-17T09:50:11.412Z,27.53
2018-02-17T09:52:12.350Z,27.60
2018-02-17T09:54:23.633Z,27.25
2018-02-17T09:58:52.085Z,26.40
2018-02-17T10:00:53.743Z,29.12
2018-02-17T10:05:21.670Z,27.20
2018-02-17T10:07:22.632Z,26.07
2018-02-17T10:09:35.160Z,26.30
2018-02-17T10:11:36.195Z,30.13
2018-02-17T10:13:37.106Z,28.58
2018-02-17T10:18:05.809Z,25.67
2018-02-17T10:22:44.642Z,29.30
2018-02-17T10:24:45.750Z,29.47
2018-02-17T10:27:07.305Z,30.27
2018-02-17T10:29:08.499Z,27.97
2018-02-17T10:31:09.601Z,32.30
2018-02-17T10:35:38.128Z,29.90
2018-02-17T10:42:55.169Z,30.57
2018-02-17T10:44:56.281Z,31.57
2018-02-17T10:46:57.437Z,27.30
2018-02-17T10:48:58.593Z,29.50
2018-02-17T10:51:00.493Z,29.30
2018-02-17T10:53:01.554Z,32.40
2018-02-17T10:55:02.627Z,29.90
2018-02-17T10:57:03.742Z,29.60
2018-02-17T10:59:18.158Z,30.40
2018-02-17T11:01:19.103Z,31.83
2018-02-17T11:03:20.019Z,29.07
2018-02-17T11:05:20.938Z,30.43
2018-02-17T11:07:21.896Z,32.27
2018-02-17T11:09:22.856Z,35.00
2018-02-17T11:11:37.471Z,33.30
2018-02-17T11:13:38.407Z,33.30
2018-02-17T11:15:39.346Z,35.70
2018-02-17T11:17:40.265Z,34.77
2018-02-17T11:22:08.564Z,30.60
2018-02-17T11:24:09.505Z,31.83
2018-02-17T11:26:10.429Z,32.13
2018-02-17T11:28:12.117Z,28.60
2018-02-17T11:30:21.900Z,31.90
2018-02-17T11:32:22.843Z,29.60
2018-02-17T11:34:23.786Z,29.70
2018-02-17T11:36:53.771Z,27.97
2018-02-17T11:38:55.475Z,25.70
2018-02-17T11:41:24.255Z,28.70
2018-02-17T11:43:25.189Z,27.37
2018-02-17T11:45:26.131Z,33.85
2018-02-17T11:47:27.062Z,31.60
2018-02-17T11:49:28.006Z,30.77
2018-02-17T11:51:29.678Z,28.70
2018-02-17T11:53:53.981Z,29.33
2018-02-17T11:58:22.778Z,28.70
2018-02-17T12:00:25.803Z,27.57
2018-02-17T12:04:55.032Z,29.50
2018-02-17T12:06:55.989Z,28.90
2018-02-17T12:08:56.939Z,28.50
2018-02-17T12:10:57.875Z,28.90
2018-02-17T12:13:21.620Z,28.93
2018-02-17T12:15:22.568Z,27.93
2018-02-17T12:19:51.683Z,31.07
2018-02-17T12:21:52.636Z,29.50
2018-02-17T12:23:53.580Z,31.15
2018-02-17T12:25:54.631Z,30.63
2018-02-17T12:27:55.555Z,31.10
2018-02-17T12:29:56.652Z,28.87
2018-02-17T12:32:22.128Z,29.67
2018-02-17T12:34:23.264Z,29.40
2018-02-17T12:38:52.111Z,33.72
2018-02-17T12:40:53.256Z,32.57
2018-02-17T12:42:54.266Z,32.97
2018-02-17T12:44:55.212Z,34.80
2018-02-17T12:46:56.152Z,34.73
2018-02-17T12:49:21.347Z,36.50
2018-02-17T12:51:22.296Z,32.53
2018-02-17T12:53:24.029Z,35.92
2018-02-17T12:55:24.928Z,36.30
2018-02-17T12:57:26.062Z,33.90
2018-02-17T12:59:37.036Z,33.43
2018-02-17T13:01:51.365Z,34.93
2018-02-17T13:03:52.308Z,35.07
2018-02-17T13:05:53.291Z,33.27
2018-02-17T13:08:19.395Z,34.70
2018-02-17T13:10:20.352Z,35.77
2018-02-17T13:12:50.304Z,34.60
2018-02-17T13:14:51.244Z,33.50
2018-02-17T13:16:52.305Z,33.07
2018-02-17T13:18:53.240Z,34.60
2018-02-17T13:20:54.167Z,33.67
2018-02-17T13:22:55.332Z,32.93
2018-02-17T13:27:25.348Z,34.07
2018-02-17T13:29:26.356Z,32.03
2018-02-17T13:33:46.610Z,32.17
2018-02-17T13:35:47.578Z,33.20
2018-02-17T13:37:49.847Z,33.47
2018-02-17T13:40:20.271Z,33.72
2018-02-17T13:42:21.590Z,33.93
2018-02-17T13:44:22.556Z,32.53
2018-02-17T13:46:39.392Z,32.10
2018-02-17T13:48:40.628Z,31.43
2018-02-17T13:53:09.785Z,32.30
2018-02-17T13:55:10.740Z,35.25
2018-02-17T13:57:11.680Z,33.90
2018-02-17T13:59:12.615Z,31.30
2018-02-17T14:01:13.544Z,32.07
2018-02-17T14:03:14.475Z,32.17
2018-02-17T14:07:44.617Z,32.40
2018-02-17T14:10:09.943Z,33.55
2018-02-17T14:12:10.887Z,33.40
2018-02-17T14:14:11.924Z,32.57
2018-02-17T14:16:39.344Z,31.80
2018-02-17T14:18:40.279Z,35.90
2018-02-17T14:20:41.282Z,33.77
2018-02-17T14:22:42.228Z,31.67
2018-02-17T14:24:43.151Z,33.27
2018-02-17T14:26:44.808Z,32.53
2018-02-17T14:31:22.706Z,33.07
2018-02-17T14:33:23.636Z,33.20
2018-02-17T14:35:40.747Z,34.50
2018-02-17T14:37:41.751Z,35.87
2018-02-17T14:39:42.699Z,33.30
2018-02-17T14:41:43.614Z,33.60
2018-02-17T14:43:44.541Z,32.97
2018-02-17T14:46:05.716Z,32.50
2018-02-17T14:48:07.387Z,31.37
2018-02-17T14:50:09.331Z,32.57
2018-02-17T14:54:38.191Z,31.30
2018-02-17T14:56:39.196Z,37.08
2018-02-17T14:58:40.188Z,35.60
2018-02-17T15:00:41.148Z,33.97
2018-02-17T15:02:42.143Z,32.57
2018-02-17T15:04:43.108Z,33.20
2018-02-17T15:06:44.807Z,33.90
2018-02-17T15:13:51.501Z,30.07
2018-02-17T15:15:53.332Z,30.97
2018-02-17T15:17:54.467Z,31.90
2018-02-17T15:19:55.574Z,25.10
2018-02-17T15:21:56.740Z,19.53
2018-02-17T15:23:57.810Z,20.07
2018-02-17T15:25:58.906Z,28.23
2018-02-17T15:28:00.757Z,27.92
2018-02-17T15:30:09.620Z,28.67
2018-02-17T15:32:10.717Z,27.77
2018-02-17T15:36:40.612Z,25.93
2018-02-17T15:38:42.463Z,28.53
2018-02-17T15:40:44.299Z,29.00
2018-02-17T15:42:45.437Z,32.53
2018-02-17T15:44:46.575Z,31.70
2018-02-17T15:46:49.667Z,31.70
2018-02-17T15:48:50.785Z,31.60
2018-02-17T15:50:52.700Z,33.33
2018-02-17T15:55:39.749Z,32.07
2018-02-17T15:57:40.933Z,30.40
2018-02-17T16:02:10.031Z,34.77
2018-02-17T16:04:11.161Z,32.77
2018-02-17T16:06:12.383Z,32.15
2018-02-17T16:08:39.321Z,29.90
2018-02-17T16:13:08.322Z,29.90
2018-02-17T16:15:10.414Z,37.10
2018-02-17T16:17:11.597Z,35.87
2018-02-17T16:19:12.710Z,34.50
2018-02-17T16:23:42.832Z,28.17
2018-02-17T16:25:43.960Z,27.40
2018-02-17T16:27:45.117Z,28.43
2018-02-17T16:29:46.215Z,31.60
2018-02-17T16:31:47.409Z,30.63
2018-02-17T16:36:41.214Z,27.77
2018-02-17T16:38:43.092Z,36.50
2018-02-17T16:40:44.160Z,31.23
2018-02-17T16:42:45.257Z,27.60
2018-02-17T16:44:46.387Z,26.27
2018-02-17T16:46:47.613Z,26.40
2018-02-17T16:51:26.194Z,25.30
2018-02-17T16:55:55.336Z,27.40
2018-02-17T16:58:09.720Z,27.73
2018-02-17T17:00:19.136Z,30.90
2018-02-17T17:02:20.763Z,27.10
2018-02-17T17:04:21.964Z,31.63
2018-02-17T17:08:50.455Z,28.07
2018-02-17T17:10:51.839Z,27.90
2018-02-17T17:15:20.640Z,35.22
2018-02-17T17:17:21.595Z,28.70
2018-02-17T17:19:30.913Z,26.87
2018-02-17T17:21:31.851Z,24.47
2018-02-17T17:31:22.437Z,23.10
2018-02-17T17:33:23.500Z,24.17
2018-02-17T17:35:24.423Z,22.30
2018-02-17T17:37:26.084Z,21.17
2018-02-17T17:39:42.695Z,20.77
2018-02-17T17:41:43.805Z,23.10
2018-02-17T17:43:44.746Z,24.10
2018-02-17T17:45:45.684Z,20.73
2018-02-17T17:47:46.611Z,20.20
2018-02-17T17:49:47.531Z,18.73
2018-02-17T17:52:15.268Z,20.53
2018-02-17T17:54:16.207Z,20.30
2018-02-17T17:56:17.241Z,22.00
2018-02-17T17:58:18.221Z,27.15
2018-02-17T18:00:19.159Z,23.27
2018-02-17T18:02:20.264Z,24.20
2018-02-17T18:04:21.203Z,24.37
2018-02-17T18:06:22.160Z,27.13
2018-02-17T18:11:08.581Z,25.90
2018-02-17T18:13:24.578Z,31.42
2018-02-17T18:17:53.658Z,24.30
2018-02-17T18:20:02.797Z,29.40
2018-02-17T18:22:03.759Z,26.60
2018-02-17T18:26:33.023Z,26.17
2018-02-17T18:28:34.709Z,28.30
2018-02-17T18:33:03.970Z,30.17
2018-02-17T18:35:06.058Z,25.80
2018-02-17T18:37:06.983Z,27.10
2018-02-17T18:39:07.922Z,21.97
2018-02-17T18:41:35.558Z,30.80
2018-02-17T18:43:36.555Z,25.17
2018-02-17T18:45:37.472Z,25.30
2018-02-17T18:47:38.407Z,39.13
2018-02-17T18:49:39.323Z,27.07
2018-02-17T18:51:40.979Z,24.90
2018-02-17T18:56:09.256Z,24.60
2018-02-17T18:58:35.548Z,22.47
2018-02-17T19:00:36.509Z,25.35
2018-02-17T19:02:37.482Z,22.80
2018-02-17T19:04:38.444Z,22.33
2018-02-17T19:06:39.372Z,22.20
2018-02-17T19:08:40.361Z,23.27
2018-02-17T19:10:42.059Z,23.70
2018-02-17T19:12:43.041Z,22.60
2018-02-17T19:14:43.990Z,27.85
2018-02-17T19:16:44.988Z,24.60
2018-02-17T19:21:23.324Z,23.25
2018-02-17T19:25:52.538Z,20.13
2018-02-17T19:27:53.475Z,21.77
2018-02-17T19:34:51.488Z,23.50
2018-02-17T19:39:22.094Z,21.30
2018-02-17T19:41:51.613Z,22.03
2018-02-17T19:46:19.928Z,23.50
2018-02-17T19:48:21.661Z,24.50
2018-02-17T19:50:22.702Z,26.35
2018-02-17T19:54:52.174Z,25.17
2018-02-17T19:59:31.507Z,25.33
2018-02-17T20:01:32.456Z,25.33
2018-02-17T20:03:33.425Z,24.67
2018-02-17T20:08:07.931Z,35.20
2018-02-17T20:10:08.893Z,34.43
2018-02-17T20:12:09.828Z,34.72
2018-02-17T20:14:10.847Z,32.27
2018-02-17T20:16:11.811Z,33.30
2018-02-17T20:18:12.749Z,32.20
2018-02-17T20:20:23.643Z,38.22
2018-02-17T20:22:24.589Z,34.43
2018-02-17T20:24:25.576Z,29.40
2018-02-17T20:26:26.498Z,27.47
2018-02-17T20:31:05.389Z,27.83
2018-02-17T20:33:06.327Z,31.15
2018-02-17T20:35:07.296Z,29.50
2018-02-17T20:39:45.607Z,28.60
2018-02-17T20:41:46.542Z,28.73
2018-02-17T20:43:47.519Z,27.00
2018-02-17T20:46:12.463Z,29.73
2018-02-17T20:48:13.463Z,34.13
2018-02-17T20:50:14.385Z,31.73
2018-02-17T20:57:10.020Z,42.70
2018-02-17T20:59:10.991Z,35.87
2018-02-17T21:01:11.916Z,29.77
2018-02-17T21:03:12.933Z,33.80
2018-02-17T21:07:42.162Z,27.70
2018-02-17T21:09:43.126Z,28.10
2018-02-17T21:11:44.276Z,32.22
2018-02-17T21:13:45.284Z,31.67
2018-02-17T21:15:46.208Z,29.47
2018-02-17T21:20:16.087Z,29.00
2018-02-17T21:22:37.692Z,28.77
2018-02-17T21:24:38.627Z,34.78
2018-02-17T21:29:07.296Z,29.03
2018-02-17T21:31:08.255Z,30.10
2018-02-17T21:33:09.948Z,33.10
2018-02-17T21:35:10.883Z,32.67
2018-02-17T21:37:11.856Z,33.30
2018-02-17T21:39:12.784Z,37.90
2018-02-17T21:41:13.711Z,34.03
2018-02-17T21:43:15.384Z,35.00
2018-02-17T21:45:16.325Z,35.50
2018-02-17T21:47:17.246Z,44.72
2018-02-17T21:49:27.092Z,39.63
2018-02-17T21:51:28.039Z,36.10
2018-02-17T21:53:29.108Z,37.08
2018-02-17T21:55:34.431Z,36.67
2018-02-17T22:00:04.115Z,32.37
2018-02-17T22:04:33.723Z,28.97
2018-02-17T22:06:35.436Z,30.65
2018-02-17T22:08:36.375Z,36.72
2018-02-17T22:10:37.311Z,38.43
2018-02-17T22:12:38.363Z,32.63
2018-02-17T22:14:39.332Z,33.07
2018-02-17T22:16:40.383Z,34.97
2018-02-17T22:18:41.318Z,34.47
2018-02-17T22:20:42.281Z,34.93
2018-02-17T22:22:43.275Z,35.43
2018-02-17T22:24:44.211Z,31.47
2018-02-17T22:26:45.159Z,33.00
2018-02-17T22:29:04.164Z,33.17
2018-02-17T22:31:05.132Z,33.87
2018-02-17T22:33:06.103Z,31.77
2018-02-17T22:35:07.112Z,31.50
2018-02-17T22:37:08.065Z,41.70
2018-02-17T22:39:09.030Z,38.60
2018-02-17T22:41:10.006Z,31.30
2018-02-17T22:43:11.720Z,33.70
2018-02-17T22:45:12.720Z,33.00
2018-02-17T22:47:34.320Z,33.07
2018-02-17T22:49:35.299Z,31.40
2018-02-17T22:51:38.448Z,42.15
2018-02-17T22:54:03.520Z,36.40
2018-02-17T22:56:04.916Z,31.00
2018-02-17T23:00:42.714Z,32.20
2018-02-17T23:02:43.672Z,31.25
2018-02-17T23:04:49.700Z,28.97
2018-02-17T23:06:51.450Z,28.15
2018-02-17T23:11:20.393Z,27.10
2018-02-17T23:15:49.755Z,26.37
2018-02-17T23:17:50.772Z,28.03
2018-02-17T23:19:52.555Z,27.55
2018-02-17T23:22:19.572Z,25.92
2018-02-17T23:29:15.976Z,28.25
2018-02-17T23:31:16.995Z,25.23
2018-02-17T23:33:17.928Z,30.17
2018-02-17T23:35:19.723Z,27.17
2018-02-17T23:37:20.760Z,25.83
2018-02-17T23:39:21.748Z,26.27
2018-02-17T23:41:22.704Z,32.78
2018-02-17T23:43:24.408Z,29.00
2018-02-17T23:45:49.740Z,29.02
2018-02-17T23:47:50.704Z,32.55
2018-02-17T23:49:51.652Z,32.60
2018-02-17T23:54:20.156Z,31.08
2018-02-17T23:56:21.140Z,31.98
2018-02-17T23:58:22.853Z,31.03
